• Join FlightAware (Why Join?)
  • Login
  • US Flag 
03:23PM EST


 

Airport Tracker/Info


-or-


 

Live Flight TrackerFlight Track Log ✈ N53NW ✈ 03-May-2013 ✈ KHVC - KTZR

Flight Track Log - Related Links

Times and Time Zones

All times are in EDT time to prevent confusion due to time zone crossing. See the N53NW flight status page for this flight to view local times or setup timezone preferences in your user account.

Time Position Orientation Groundspeed Altitude Reporting Facility
EDT Latitude Longitude Course Direction KTS MPH feet Rate Location/Type
04:18PM 36.8678 -87.4214 39° Northeast 164 189 2,000  Level Memphis Center
04:18PM 36.8861 -87.4025 39° Northeast 415 478 2,300 1,380 Climbing Memphis Center
04:19PM 36.8986 -87.3942 28° Northeast 178 205 3,000 2,880 Climbing Memphis Center
04:19PM 36.9289 -87.3569 44° Northeast 230 265 5,200 3,120 Climbing Memphis Center
04:20PM 36.9833 -87.2847 47° Northeast 288 331 8,500 3,360 Climbing Memphis Center
04:21PM 37.0397 -87.2072 48° Northeast 294 338 12,000 3,240 Climbing Memphis Center
04:22PM 37.0942 -87.1400 45° Northeast 299 344 15,000 2,580 Climbing Memphis Center
04:23PM 37.1525 -87.0569 49° Northeast 304 350 17,200 2,100 Climbing Memphis Center
04:24PM 37.2208 -86.9628 48° Northeast 330 380 19,300 2,100 Climbing Memphis Center
04:26PM 37.3472 -86.7936 47° Northeast 359 413 23,100 2,040 Climbing Indianapolis Center
04:27PM 37.4142 -86.7036 47° Northeast 351 404 25,100 1,920 Climbing Indianapolis Center
04:28PM 37.4781 -86.6136 48° Northeast 345 397 27,100 1,980 Climbing Indianapolis Center
04:29PM 37.5122 -86.5003 69° East 338 389 29,200 1,800 Climbing Indianapolis Center
04:30PM 37.5664 -86.4019 55° Northeast 347 399 30,900 840 Climbing Indianapolis Center
04:31PM 37.6453 -86.3103 43° Northeast 380 437 31,000  Climbing Indianapolis Center
04:32PM 37.7442 -86.1989 42° Northeast 413 475 31,000  Level Indianapolis Center
04:33PM 37.8336 -86.0953 42° Northeast 432 497 31,000  Level Indianapolis Center
04:35PM 37.9231 -85.9939 42° Northeast 431 496 31,000  Level Indianapolis Center
04:36PM 38.0117 -85.8903 43° Northeast 432 497 31,000  Level Indianapolis Center
04:37PM 38.1006 -85.7886 42° Northeast 430 495 31,000  Level Indianapolis Center
04:38PM 38.2081 -85.6622 43° Northeast 437 503 31,000  Level Indianapolis Center
04:39PM 38.2956 -85.5614 42° Northeast 429 494 31,000  Level Indianapolis Center
04:40PM 38.3814 -85.4594 43° Northeast 422 486 31,000  Level Indianapolis Center
04:41PM 38.4686 -85.3564 43° Northeast 425 489 31,000  Level Indianapolis Center
04:42PM 38.5572 -85.2533 42° Northeast 427 491 31,000  Level Indianapolis Center
04:43PM 38.6550 -85.1369 43° Northeast 433 498 31,000  Level Indianapolis Center
04:44PM 38.7436 -85.0325 43° Northeast 435 501 31,000  Level Indianapolis Center
04:45PM 38.8294 -84.9292 43° Northeast 427 491 31,000  Level Indianapolis Center
04:46PM 38.9142 -84.8286 43° Northeast 421 484 31,000  Level Indianapolis Center
04:47PM 39.0128 -84.7058 44° Northeast 421 484 31,000 -300 Level Indianapolis Center
04:48PM 39.0811 -84.5839 54° Northeast 417 480 30,500 -1,020 Descending Indianapolis Center
04:49PM 39.1486 -84.4608 55° Northeast 418 481 28,900 -1,500 Descending Indianapolis Center
04:50PM 39.2172 -84.3383 54° Northeast 417 480 27,500 -1,500 Descending Indianapolis Center
04:51PM 39.2836 -84.2189 54° Northeast 407 468 25,800 -1,800 Descending Indianapolis Center
04:52PM 39.3347 -84.0936 62° Northeast 395 455 23,800 -1,800 Descending Indianapolis Center
04:53PM 39.3803 -83.9747 64° Northeast 362 417 22,100 -1,860 Descending Indianapolis Center
04:54PM 39.4325 -83.8383 64° Northeast 360 414 20,000 -1,980 Descending Indianapolis Center
04:54PM 39.4439 -83.8111 62° Northeast 354 407 19,600 -2,040 Descending Indianapolis Center
04:55PM 39.4761 -83.7233 65° Northeast 355 409 17,900 -2,040 Descending Indianapolis Center
04:56PM 39.5192 -83.6106 64° Northeast 349 402 15,900 -2,100 Descending Indianapolis Center
04:57PM 39.5597 -83.5014 64° Northeast 339 390 13,600 -2,520 Descending Indianapolis Center
04:58PM 39.6128 -83.4211 49° Northeast 302 348 10,800 -2,820 Descending Indianapolis Center
04:59PM 39.6789 -83.3586 36° Northeast 295 339 7,800 -3,000 Descending Indianapolis Center
05:00PM 39.7522 -83.2903 36° Northeast 284 327 4,600 -2,280 Descending Indianapolis Center
05:01PM 39.8039 -83.2361 39° Northeast 255 293 3,200 -1,200 Descending Indianapolis Center
05:02PM 39.8450 -83.1831 45° Northeast 224 258 2,200 -1,020 Descending Indianapolis Center
05:03PM 39.8781 -83.1542 34° Northeast 167 192 1,200 -600 Descending Indianapolis Center
05:04PM 39.9122 -83.1275 31° Northeast 155 178 1,000 -240 Descending Indianapolis Center
05:06PM 39.9000 -83.1333 270° West  Level FlightAware Approximate